createdAt,value
2023-05-20T00:01:28.760Z,87.19
2023-05-20T00:04:12.144Z,87.37
2023-05-20T00:06:59.244Z,88.54
2023-05-20T00:12:32.673Z,88.25
2023-05-20T00:15:15.930Z,88.02
2023-05-20T00:18:00.352Z,88.00
2023-05-20T00:20:43.665Z,88.41
2023-05-20T00:23:28.389Z,89.65
2023-05-20T00:26:11.897Z,88.89
2023-05-20T00:28:55.362Z,89.25
2023-05-20T00:31:38.886Z,89.49
2023-05-20T00:34:22.432Z,89.77
2023-05-20T00:37:05.866Z,88.73
2023-05-20T00:39:50.516Z,89.21
2023-05-20T00:42:33.770Z,88.67
2023-05-20T00:45:17.156Z,89.24
2023-05-20T00:48:02.553Z,89.46
2023-05-20T00:50:46.229Z,89.00
2023-05-20T00:53:29.650Z,89.42
2023-05-20T00:56:14.514Z,89.06
2023-05-20T00:58:58.843Z,89.23
2023-05-20T01:01:42.391Z,88.34
2023-05-20T01:04:26.544Z,88.39
2023-05-20T01:07:09.750Z,87.91
2023-05-20T01:09:54.547Z,88.66
2023-05-20T01:12:43.989Z,88.49
2023-05-20T01:15:29.316Z,88.19
2023-05-20T01:18:18.684Z,87.62
2023-05-20T01:21:04.028Z,88.06
2023-05-20T01:23:49.120Z,87.78
2023-05-20T01:26:33.621Z,87.32
2023-05-20T01:29:18.821Z,87.92
2023-05-20T01:32:03.262Z,88.46
2023-05-20T01:34:49.666Z,88.91
2023-05-20T01:37:33.913Z,89.30
2023-05-20T01:40:20.263Z,89.76
2023-05-20T01:43:04.853Z,89.75
2023-05-20T01:45:48.282Z,90.57
2023-05-20T01:48:31.534Z,90.48
2023-05-20T01:51:14.916Z,92.03
2023-05-20T01:53:58.148Z,90.77
2023-05-20T01:56:42.914Z,90.80
2023-05-20T01:59:26.082Z,90.67
2023-05-20T02:02:09.348Z,91.43
2023-05-20T02:04:53.358Z,91.02
2023-05-20T02:07:36.629Z,90.92
2023-05-20T02:10:19.824Z,90.53
2023-05-20T02:13:04.611Z,90.77
2023-05-20T02:15:47.837Z,90.79
2023-05-20T02:18:32.866Z,90.50
2023-05-20T02:21:16.170Z,90.84
2023-05-20T02:23:59.359Z,91.18
2023-05-20T02:26:42.521Z,91.56
2023-05-20T02:29:27.198Z,91.95
2023-05-20T02:32:10.422Z,91.68
2023-05-20T02:34:53.678Z,91.85
2023-05-20T02:37:39.093Z,91.77
2023-05-20T02:40:23.264Z,92.15
2023-05-20T02:43:07.959Z,91.91
2023-05-20T02:45:52.757Z,91.75
2023-05-20T02:48:35.938Z,91.77
2023-05-20T02:51:19.138Z,91.00
2023-05-20T02:54:02.646Z,89.97
2023-05-20T02:56:45.841Z,90.51
2023-05-20T02:59:29.058Z,90.69
2023-05-20T03:02:13.944Z,89.74
2023-05-20T03:04:57.169Z,89.66
2023-05-20T03:07:40.420Z,89.30
2023-05-20T03:10:23.786Z,88.75
2023-05-20T03:13:09.614Z,88.29
2023-05-20T03:15:52.996Z,89.82
2023-05-20T03:18:37.658Z,89.22
2023-05-20T03:21:24.157Z,88.29
2023-05-20T03:24:07.582Z,88.25
2023-05-20T03:26:52.237Z,87.80
2023-05-20T03:29:35.560Z,88.21
2023-05-20T03:32:18.673Z,87.35
2023-05-20T03:35:03.356Z,87.46
2023-05-20T03:37:46.770Z,87.12
2023-05-20T03:40:30.141Z,87.59
2023-05-20T03:43:13.384Z,87.23
2023-05-20T03:45:56.668Z,87.62
2023-05-20T03:48:40.020Z,87.48
2023-05-20T03:51:24.544Z,87.26
2023-05-20T03:54:07.853Z,87.55
2023-05-20T03:56:52.061Z,87.51
2023-05-20T03:59:35.346Z,88.21
2023-05-20T04:02:18.684Z,87.37
2023-05-20T04:05:02.487Z,87.34
2023-05-20T04:07:47.915Z,87.40
2023-05-20T04:10:32.209Z,87.33
2023-05-20T04:13:15.781Z,86.65
2023-05-20T04:15:59.158Z,87.82
2023-05-20T04:18:42.455Z,88.18
2023-05-20T04:21:25.976Z,88.74
2023-05-20T04:24:10.680Z,87.63
2023-05-20T04:26:56.038Z,87.23
2023-05-20T04:29:41.681Z,87.32
2023-05-20T04:32:25.261Z,87.87
2023-05-20T04:35:12.641Z,88.30
2023-05-20T04:37:55.915Z,87.41
2023-05-20T04:40:40.594Z,87.39
2023-05-20T04:43:23.799Z,87.13
2023-05-20T04:46:07.403Z,86.91
2023-05-20T04:48:50.963Z,84.53
2023-05-20T04:51:34.308Z,83.74
2023-05-20T04:54:18.149Z,81.79
2023-05-20T04:57:02.943Z,79.29
2023-05-20T04:59:46.177Z,78.30
2023-05-20T05:02:29.581Z,78.82
2023-05-20T05:05:12.878Z,79.63
2023-05-20T05:07:57.112Z,76.87
2023-05-20T05:10:40.385Z,78.47
2023-05-20T05:13:24.981Z,76.92
2023-05-20T05:16:08.710Z,76.46
2023-05-20T05:18:52.253Z,75.88
2023-05-20T05:21:35.491Z,74.56
2023-05-20T05:24:19.445Z,73.69
2023-05-20T05:27:02.936Z,73.61
2023-05-20T05:29:48.396Z,73.18
2023-05-20T05:32:31.758Z,72.02
2023-05-20T05:35:15.692Z,70.67
2023-05-20T05:38:00.499Z,70.00
2023-05-20T05:40:44.151Z,67.96
2023-05-20T05:43:27.394Z,66.69
2023-05-20T05:46:12.052Z,65.29
2023-05-20T05:48:55.374Z,63.15
2023-05-20T05:51:39.173Z,62.77
2023-05-20T05:54:22.486Z,60.88
2023-05-20T05:57:07.888Z,60.40
2023-05-20T05:59:51.164Z,59.02
2023-05-20T06:02:38.527Z,59.02
2023-05-20T06:05:21.960Z,57.65
2023-05-20T06:08:05.492Z,57.45
2023-05-20T06:10:50.247Z,57.87
2023-05-20T06:13:33.493Z,55.63
2023-05-20T06:16:17.145Z,54.77
2023-05-20T06:19:03.569Z,54.05
2023-05-20T06:21:47.212Z,53.35
2023-05-20T06:24:30.502Z,50.62
2023-05-20T06:27:13.821Z,50.09
2023-05-20T06:29:57.089Z,49.64
2023-05-20T06:32:40.869Z,52.14
2023-05-20T06:35:25.614Z,49.68
2023-05-20T06:38:08.972Z,47.93
2023-05-20T06:40:54.647Z,47.72
2023-05-20T06:43:38.268Z,49.67
2023-05-20T06:46:22.359Z,45.37
2023-05-20T06:49:06.923Z,44.60
2023-05-20T06:51:59.219Z,45.44
2023-05-20T06:54:42.551Z,43.90
2023-05-20T06:57:25.867Z,44.23
2023-05-20T07:00:10.949Z,45.46
2023-05-20T07:02:55.491Z,43.83
2023-05-20T07:05:38.771Z,46.60
2023-05-20T07:08:23.432Z,47.28
2023-05-20T07:11:07.028Z,44.20
2023-05-20T07:13:50.262Z,43.95
2023-05-20T07:16:35.318Z,39.93
2023-05-20T07:19:18.647Z,43.36
2023-05-20T07:22:04.718Z,41.81
2023-05-20T07:24:49.338Z,38.85
2023-05-20T07:27:32.731Z,35.73
2023-05-20T07:30:15.915Z,30.16
2023-05-20T07:32:59.575Z,26.92
2023-05-20T07:35:44.328Z,25.75
2023-05-20T07:38:27.973Z,24.71
2023-05-20T07:41:12.793Z,22.65
2023-05-20T07:43:56.083Z,21.80
2023-05-20T07:46:39.809Z,22.22
2023-05-20T07:49:23.468Z,19.84
2023-05-20T07:52:07.217Z,18.63
2023-05-20T07:54:50.417Z,18.63
2023-05-20T07:57:36.572Z,19.11
2023-05-20T08:00:20.853Z,19.07
2023-05-20T08:03:04.454Z,19.88
2023-05-20T08:05:47.926Z,16.62
2023-05-20T08:08:32.173Z,15.50
2023-05-20T08:11:15.503Z,21.49
2023-05-20T08:14:00.751Z,24.47
2023-05-20T08:16:44.883Z,23.45
2023-05-20T08:19:28.648Z,18.52
2023-05-20T08:22:14.204Z,17.33
2023-05-20T08:24:59.771Z,15.42
2023-05-20T08:27:43.098Z,14.73
2023-05-20T08:30:29.117Z,16.49
2023-05-20T08:33:13.297Z,14.65
2023-05-20T08:35:57.068Z,15.19
2023-05-20T08:38:40.547Z,15.83
2023-05-20T08:41:25.083Z,14.92
2023-05-20T08:44:12.970Z,15.15
2023-05-20T08:46:59.308Z,16.71
2023-05-20T08:49:45.052Z,14.82
2023-05-20T08:52:36.916Z,14.21
2023-05-20T08:55:27.154Z,14.00
2023-05-20T08:58:10.905Z,19.17
2023-05-20T09:00:54.329Z,18.58
2023-05-20T09:03:39.029Z,17.04
2023-05-20T09:06:22.218Z,18.68
2023-05-20T09:09:08.686Z,16.36
2023-05-20T09:11:52.107Z,18.62
2023-05-20T09:14:35.420Z,17.23
2023-05-20T09:17:19.205Z,17.10
2023-05-20T09:20:11.123Z,16.80
2023-05-20T09:22:54.515Z,16.02
2023-05-20T09:25:38.398Z,14.44
2023-05-20T09:28:24.278Z,13.81
2023-05-20T09:31:09.242Z,12.48
2023-05-20T09:33:56.192Z,14.38
2023-05-20T09:36:43.877Z,13.24
2023-05-20T09:39:32.928Z,13.74
2023-05-20T09:42:23.171Z,12.80
2023-05-20T09:45:09.526Z,12.06
2023-05-20T09:47:53.602Z,15.47
2023-05-20T09:50:39.671Z,17.17
2023-05-20T09:53:28.065Z,21.31
2023-05-20T09:56:11.548Z,17.71
2023-05-20T09:58:58.476Z,16.99
2023-05-20T10:01:41.849Z,17.87
2023-05-20T10:04:27.894Z,16.45
2023-05-20T10:07:42.319Z,16.32
2023-05-20T10:10:46.175Z,18.98
2023-05-20T10:13:44.119Z,20.22
2023-05-20T10:16:39.795Z,22.07
2023-05-20T10:19:31.236Z,20.88
2023-05-20T10:22:14.819Z,16.71
2023-05-20T10:25:01.443Z,15.29
2023-05-20T10:27:47.366Z,13.74
2023-05-20T10:30:30.686Z,12.51
2023-05-20T10:33:20.067Z,15.56
2023-05-20T10:36:03.928Z,18.17
2023-05-20T10:38:54.001Z,18.44
2023-05-20T10:41:37.636Z,19.91
2023-05-20T10:44:22.384Z,19.69
2023-05-20T10:47:24.537Z,21.44
2023-05-20T10:50:09.689Z,24.18
2023-05-20T10:52:53.003Z,24.34
2023-05-20T10:55:40.219Z,26.73
2023-05-20T10:58:24.612Z,26.01
2023-05-20T11:01:09.488Z,27.90
2023-05-20T11:03:53.411Z,27.68
2023-05-20T11:06:36.578Z,27.17
2023-05-20T11:09:19.777Z,27.20
2023-05-20T11:12:03.629Z,30.01
2023-05-20T11:14:47.673Z,30.38
2023-05-20T11:17:32.401Z,30.98
2023-05-20T11:20:16.215Z,31.95
2023-05-20T11:22:59.472Z,33.30
2023-05-20T11:25:42.761Z,32.59
2023-05-20T11:28:28.969Z,33.27
2023-05-20T11:31:12.249Z,35.29
2023-05-20T11:34:01.653Z,33.77
2023-05-20T11:36:45.233Z,34.13
2023-05-20T11:39:31.670Z,34.08
2023-05-20T11:42:16.726Z,34.22
2023-05-20T11:45:01.558Z,34.61
2023-05-20T11:47:44.940Z,34.76
2023-05-20T11:50:29.819Z,34.73
2023-05-20T11:53:18.399Z,34.14
2023-05-20T11:56:02.914Z,35.01
2023-05-20T11:58:46.255Z,35.33
2023-05-20T12:01:33.814Z,37.18
2023-05-20T12:04:18.164Z,36.79
2023-05-20T12:07:09.299Z,37.06
2023-05-20T12:09:52.630Z,38.01
2023-05-20T12:12:36.801Z,38.56
2023-05-20T12:15:20.032Z,40.59
2023-05-20T12:18:04.699Z,42.23
2023-05-20T12:20:47.933Z,43.25
2023-05-20T12:23:34.363Z,43.88
2023-05-20T12:26:18.549Z,44.45
2023-05-20T12:29:02.876Z,45.16
2023-05-20T12:31:46.181Z,47.71
2023-05-20T12:34:30.712Z,49.35
2023-05-20T12:37:14.098Z,48.99
2023-05-20T12:40:01.536Z,49.17
2023-05-20T12:42:46.190Z,48.81
2023-05-20T12:45:30.078Z,49.14
2023-05-20T12:48:15.283Z,48.53
2023-05-20T12:50:58.822Z,47.06
2023-05-20T12:53:42.087Z,46.03
2023-05-20T12:56:27.888Z,46.66
2023-05-20T12:59:11.230Z,46.58
2023-05-20T13:01:54.545Z,45.50
2023-05-20T13:04:40.240Z,45.39
2023-05-20T13:07:23.527Z,45.08
2023-05-20T13:10:08.310Z,44.99
2023-05-20T13:12:53.075Z,44.46
2023-05-20T13:15:37.012Z,44.70
2023-05-20T13:18:20.323Z,45.01
2023-05-20T13:21:03.817Z,46.77
2023-05-20T13:23:46.997Z,48.43
2023-05-20T13:26:30.457Z,49.04
2023-05-20T13:29:15.127Z,49.19
2023-05-20T13:32:01.014Z,49.57
2023-05-20T13:34:45.093Z,50.38
2023-05-20T13:37:30.133Z,51.48
2023-05-20T13:40:14.375Z,51.08
2023-05-20T13:42:57.788Z,51.10
2023-05-20T13:45:42.442Z,50.80
2023-05-20T13:48:25.889Z,50.97
2023-05-20T13:51:09.252Z,51.20
2023-05-20T13:53:53.756Z,52.17
2023-05-20T13:56:37.593Z,52.29
2023-05-20T13:59:22.952Z,51.26
2023-05-20T14:02:08.713Z,50.11
2023-05-20T14:04:52.065Z,48.88
2023-05-20T14:07:36.514Z,50.12
2023-05-20T14:10:22.308Z,51.26
2023-05-20T14:13:08.124Z,51.61
2023-05-20T14:15:52.495Z,52.33
2023-05-20T14:18:37.466Z,52.28
2023-05-20T14:21:21.398Z,53.21
2023-05-20T14:24:04.911Z,53.83
2023-05-20T14:26:48.399Z,55.84
2023-05-20T14:29:31.640Z,56.63
2023-05-20T14:32:15.317Z,56.09
2023-05-20T14:35:00.231Z,56.42
2023-05-20T14:37:43.518Z,54.56
2023-05-20T14:40:26.751Z,52.29
2023-05-20T14:43:10.066Z,51.51
2023-05-20T14:45:53.884Z,51.65
2023-05-20T14:48:37.069Z,51.39
2023-05-20T14:51:21.765Z,52.88
2023-05-20T14:54:06.193Z,54.75
2023-05-20T14:56:51.711Z,55.63
2023-05-20T14:59:35.157Z,52.13
2023-05-20T15:02:19.241Z,53.24
2023-05-20T15:05:02.614Z,54.44
2023-05-20T15:07:47.747Z,55.31
2023-05-20T15:10:30.931Z,55.11
2023-05-20T15:13:14.331Z,55.29
2023-05-20T15:15:57.611Z,54.93
2023-05-20T15:18:41.374Z,54.82
2023-05-20T15:21:24.619Z,55.16
2023-05-20T15:24:09.576Z,54.38
2023-05-20T15:26:56.397Z,54.27
2023-05-20T15:29:40.878Z,54.84
2023-05-20T15:32:24.349Z,54.43
2023-05-20T15:35:09.442Z,54.64
2023-05-20T15:37:53.222Z,55.17
2023-05-20T15:40:40.132Z,55.41
2023-05-20T15:43:23.776Z,54.45
2023-05-20T15:46:07.304Z,54.05
2023-05-20T15:48:51.446Z,55.53
2023-05-20T15:51:34.682Z,54.88
2023-05-20T15:54:20.011Z,52.67
2023-05-20T15:57:05.192Z,53.69
2023-05-20T15:59:48.500Z,55.15
2023-05-20T16:02:36.039Z,54.07
2023-05-20T16:05:20.034Z,54.06
2023-05-20T16:08:04.368Z,52.83
2023-05-20T16:10:47.740Z,53.25
2023-05-20T16:13:32.392Z,52.34
2023-05-20T16:16:16.823Z,51.83
2023-05-20T16:19:00.455Z,52.45
2023-05-20T16:21:44.050Z,52.88
2023-05-20T16:24:27.557Z,53.50
2023-05-20T16:27:11.040Z,53.91
2023-05-20T16:29:55.627Z,53.75
2023-05-20T16:32:40.594Z,55.08
2023-05-20T16:35:26.657Z,55.74
2023-05-20T16:38:10.070Z,55.21
2023-05-20T16:40:56.029Z,55.54
2023-05-20T16:43:39.344Z,55.64
2023-05-20T16:46:24.042Z,55.46
2023-05-20T16:49:07.310Z,55.35
2023-05-20T16:51:52.418Z,55.54
2023-05-20T16:54:37.291Z,54.77
2023-05-20T16:57:20.503Z,53.29
2023-05-20T17:00:10.548Z,53.34
2023-05-20T17:02:55.397Z,53.11
2023-05-20T17:05:38.577Z,52.59
2023-05-20T17:08:21.935Z,52.66
2023-05-20T17:11:05.493Z,53.33
2023-05-20T17:13:48.640Z,53.24
2023-05-20T17:16:32.018Z,53.16
2023-05-20T17:19:16.930Z,53.39
2023-05-20T17:22:00.442Z,53.75
2023-05-20T17:24:43.673Z,54.18
2023-05-20T17:27:27.052Z,54.24
2023-05-20T17:30:10.937Z,54.60
2023-05-20T17:32:54.494Z,54.78
2023-05-20T17:35:39.334Z,55.44
2023-05-20T17:38:26.344Z,55.58
2023-05-20T17:41:09.450Z,55.41
2023-05-20T17:43:52.581Z,55.16
2023-05-20T17:46:35.902Z,55.67
2023-05-20T17:49:19.436Z,56.35
2023-05-20T17:52:04.246Z,56.99
2023-05-20T17:54:48.550Z,57.54
2023-05-20T17:57:31.783Z,57.79
2023-05-20T18:00:21.627Z,58.31
2023-05-20T18:03:06.469Z,58.89
2023-05-20T18:05:49.655Z,58.79
2023-05-20T18:08:34.276Z,58.22
2023-05-20T18:11:17.586Z,58.52
2023-05-20T18:14:01.366Z,59.12
2023-05-20T18:16:47.470Z,59.16
2023-05-20T18:19:31.101Z,58.83
2023-05-20T18:22:14.701Z,58.91
2023-05-20T18:24:59.283Z,59.31
2023-05-20T18:27:43.050Z,59.24
2023-05-20T18:30:27.198Z,59.55
2023-05-20T18:33:11.035Z,59.33
2023-05-20T18:35:54.329Z,59.82
2023-05-20T18:38:39.128Z,59.84
2023-05-20T18:41:32.399Z,60.73
2023-05-20T18:44:28.943Z,60.73
2023-05-20T18:47:12.682Z,61.36
2023-05-20T18:49:56.170Z,61.84
2023-05-20T18:52:39.329Z,61.79
2023-05-20T18:55:23.968Z,61.57
2023-05-20T18:58:08.876Z,62.34
2023-05-20T19:00:54.493Z,62.27
2023-05-20T19:03:37.692Z,62.41
2023-05-20T19:06:22.140Z,62.33
2023-05-20T19:09:05.890Z,62.66
2023-05-20T19:11:51.465Z,63.16
2023-05-20T19:14:36.089Z,63.28
2023-05-20T19:17:20.854Z,62.96
2023-05-20T19:20:07.293Z,62.81
2023-05-20T19:22:50.460Z,63.43
2023-05-20T19:25:33.798Z,63.92
2023-05-20T19:28:17.483Z,64.17
2023-05-20T19:31:02.483Z,65.02
2023-05-20T19:33:45.694Z,65.41
2023-05-20T19:36:28.875Z,65.54
2023-05-20T19:39:12.366Z,65.07
2023-05-20T19:41:55.712Z,65.06
2023-05-20T19:44:38.978Z,65.04
2023-05-20T19:47:24.811Z,65.31
2023-05-20T19:50:09.560Z,65.21
2023-05-20T19:52:52.739Z,65.14
2023-05-20T19:55:37.527Z,65.29
2023-05-20T19:58:22.446Z,65.12
2023-05-20T20:01:06.795Z,65.67
2023-05-20T20:03:51.734Z,66.49
2023-05-20T20:06:35.032Z,67.50
2023-05-20T20:09:18.379Z,68.13
2023-05-20T20:12:02.785Z,69.74
2023-05-20T20:14:46.265Z,71.83
2023-05-20T20:17:30.327Z,73.33
2023-05-20T20:20:15.824Z,74.80
2023-05-20T20:23:00.060Z,73.82
2023-05-20T20:25:48.262Z,74.62
2023-05-20T20:28:31.463Z,75.02
2023-05-20T20:31:14.703Z,73.59
2023-05-20T20:33:57.979Z,73.27
2023-05-20T20:36:45.079Z,74.49
2023-05-20T20:39:28.422Z,73.69
2023-05-20T20:42:13.891Z,74.67
2023-05-20T20:44:57.330Z,74.93
2023-05-20T20:47:41.128Z,74.02
2023-05-20T20:50:24.536Z,74.77
2023-05-20T20:53:09.205Z,76.03
2023-05-20T20:55:52.430Z,76.86
2023-05-20T20:58:35.866Z,77.98
2023-05-20T21:01:19.079Z,79.48
2023-05-20T21:04:04.652Z,80.04
2023-05-20T21:06:47.948Z,81.31
2023-05-20T21:09:32.830Z,81.80
2023-05-20T21:12:15.958Z,82.43
2023-05-20T21:14:59.112Z,84.21
2023-05-20T21:17:42.367Z,84.46
2023-05-20T21:20:25.812Z,83.28
2023-05-20T21:23:09.170Z,83.68
2023-05-20T21:25:53.885Z,84.76
2023-05-20T21:28:37.589Z,85.31
2023-05-20T21:31:20.875Z,85.63
2023-05-20T21:34:04.052Z,86.38
2023-05-20T21:36:47.204Z,87.54
2023-05-20T21:39:30.447Z,88.20
2023-05-20T21:42:16.209Z,87.64
2023-05-20T21:44:59.392Z,88.47
2023-05-20T21:47:42.532Z,89.53
2023-05-20T21:50:26.499Z,88.24
2023-05-20T21:53:09.617Z,87.91
2023-05-20T21:55:52.862Z,88.33
2023-05-20T21:58:40.994Z,88.94
2023-05-20T22:01:24.401Z,88.67
2023-05-20T22:04:08.081Z,89.71
2023-05-20T22:06:51.343Z,89.31
2023-05-20T22:09:35.892Z,89.73
2023-05-20T22:12:20.666Z,90.25
2023-05-20T22:15:07.098Z,91.54
2023-05-20T22:17:50.325Z,91.11
2023-05-20T22:20:34.496Z,90.28
2023-05-20T22:23:17.745Z,90.01
2023-05-20T22:26:01.020Z,89.53
2023-05-20T22:28:46.065Z,89.74
2023-05-20T22:31:30.783Z,90.06
2023-05-20T22:34:14.102Z,91.22
2023-05-20T22:36:58.274Z,91.47
2023-05-20T22:39:41.596Z,91.28
2023-05-20T22:42:24.919Z,90.61
2023-05-20T22:45:09.279Z,90.74
2023-05-20T22:47:54.320Z,89.52
2023-05-20T22:50:37.666Z,89.43
2023-05-20T22:53:22.508Z,88.67
2023-05-20T22:56:06.636Z,88.00
2023-05-20T22:58:50.675Z,87.27
2023-05-20T23:01:34.025Z,86.97
2023-05-20T23:04:18.951Z,85.93
2023-05-20T23:07:02.315Z,86.20
2023-05-20T23:09:45.874Z,85.63
2023-05-20T23:12:29.246Z,85.21
2023-05-20T23:15:12.774Z,84.65
2023-05-20T23:17:56.120Z,85.42
2023-05-20T23:20:41.692Z,84.99
2023-05-20T23:23:30.488Z,84.60
2023-05-20T23:26:14.841Z,83.67
2023-05-20T23:28:58.449Z,83.67
2023-05-20T23:31:41.871Z,83.77
2023-05-20T23:34:25.143Z,82.97
2023-05-20T23:37:09.797Z,83.16
2023-05-20T23:39:53.105Z,82.46
2023-05-20T23:42:36.629Z,82.29
2023-05-20T23:45:20.075Z,81.99
2023-05-20T23:48:03.642Z,82.15
2023-05-20T23:50:47.366Z,82.84
2023-05-20T23:53:32.092Z,83.58
2023-05-20T23:56:15.534Z,84.10
2023-05-20T23:58:59.005Z,84.94
